Terminal Aerodrome Forecast
Issued by NWS

Home | Current Version | Previous Version | Text Only | Print | Product List | Glossary On
Versions: 1 2 3 4 5 6 7 8 9 10 11 12 13 14 15 16 17 18 19 20 21 22 23 24
000
FTUS44 KMAF 050600 AAA
TAFHOB
TAF AMD
KHOB 050650Z 0507/0606 04011KT P6SM SCT015 BKN050
      TEMPO 0507/0510 VRB15G25KT 2SM +TSRA BKN003 OVC025CB
     FM051000 12011KT P6SM -SHRA BKN006 OVC025
     FM051500 17015G23KT P6SM BKN040=

USA.gov is the U.S. government's official web portal to all federal, state and local government web resources and services.